sensor_id;sensor_type;location;lat;lon;timestamp;P1;durP1;ratioP1;P2;durP2;ratioP2
76098;SDS011;64828;49.956;8.636;2023-12-20T00:00:15;4.95;;;3.28;;
76098;SDS011;64828;49.956;8.636;2023-12-20T00:00:31;5.37;;;3.50;;
76098;SDS011;64828;49.956;8.636;2023-12-20T00:00:46;5.63;;;3.50;;
76098;SDS011;64828;49.956;8.636;2023-12-20T00:01:02;5.68;;;3.50;;
76098;SDS011;64828;49.956;8.636;2023-12-20T00:01:18;5.07;;;3.35;;
76098;SDS011;64828;49.956;8.636;2023-12-20T00:01:33;4.10;;;2.77;;
76098;SDS011;64828;49.956;8.636;2023-12-20T00:01:49;3.60;;;2.55;;
76098;SDS011;64828;49.956;8.636;2023-12-20T00:02:04;4.23;;;2.93;;
76098;SDS011;64828;49.956;8.636;2023-12-20T00:02:20;4.55;;;3.10;;
76098;SDS011;64828;49.956;8.636;2023-12-20T00:02:36;4.50;;;3.20;;
76098;SDS011;64828;49.956;8.636;2023-12-20T00:02:51;6.28;;;3.20;;
76098;SDS011;64828;49.956;8.636;2023-12-20T00:03:07;6.72;;;3.10;;
76098;SDS011;64828;49.956;8.636;2023-12-20T00:03:22;5.57;;;3.10;;
76098;SDS011;64828;49.956;8.636;2023-12-20T00:03:38;5.70;;;3.28;;
76098;SDS011;64828;49.956;8.636;2023-12-20T00:03:54;5.57;;;3.17;;
76098;SDS011;64828;49.956;8.636;2023-12-20T00:04:10;5.80;;;3.40;;
76098;SDS011;64828;49.956;8.636;2023-12-20T00:04:25;5.03;;;3.40;;
76098;SDS011;64828;49.956;8.636;2023-12-20T00:04:41;4.93;;;3.20;;
76098;SDS011;64828;49.956;8.636;2023-12-20T00:04:56;5.97;;;3.50;;
76098;SDS011;64828;49.956;8.636;2023-12-20T00:05:13;5.75;;;3.60;;
76098;SDS011;64828;49.956;8.636;2023-12-20T00:05:29;4.22;;;3.00;;
76098;SDS011;64828;49.956;8.636;2023-12-20T00:05:47;4.80;;;2.90;;
76098;SDS011;64828;49.956;8.636;2023-12-20T00:06:03;6.20;;;3.22;;
76098;SDS011;64828;49.956;8.636;2023-12-20T00:06:18;5.87;;;3.20;;
76098;SDS011;64828;49.956;8.636;2023-12-20T00:06:34;5.88;;;3.15;;
76098;SDS011;64828;49.956;8.636;2023-12-20T00:06:50;5.28;;;3.25;;
76098;SDS011;64828;49.956;8.636;2023-12-20T00:07:06;4.68;;;3.22;;
76098;SDS011;64828;49.956;8.636;2023-12-20T00:07:21;4.30;;;3.00;;
76098;SDS011;64828;49.956;8.636;2023-12-20T00:07:37;4.93;;;3.22;;
76098;SDS011;64828;49.956;8.636;2023-12-20T00:07:53;5.57;;;3.50;;
76098;SDS011;64828;49.956;8.636;2023-12-20T00:08:08;4.80;;;3.28;;
76098;SDS011;64828;49.956;8.636;2023-12-20T00:08:24;4.57;;;3.30;;
76098;SDS011;64828;49.956;8.636;2023-12-20T00:08:40;4.63;;;3.30;;
76098;SDS011;64828;49.956;8.636;2023-12-20T00:08:56;4.93;;;3.10;;
76098;SDS011;64828;49.956;8.636;2023-12-20T00:09:12;5.35;;;3.03;;
76098;SDS011;64828;49.956;8.636;2023-12-20T00:09:28;4.85;;;3.10;;
76098;SDS011;64828;49.956;8.636;2023-12-20T00:09:44;3.87;;;3.00;;
76098;SDS011;64828;49.956;8.636;2023-12-20T00:09:59;4.40;;;3.10;;
76098;SDS011;64828;49.956;8.636;2023-12-20T00:10:15;4.57;;;3.00;;
76098;SDS011;64828;49.956;8.636;2023-12-20T00:10:30;4.40;;;3.00;;
76098;SDS011;64828;49.956;8.636;2023-12-20T00:10:46;5.13;;;3.30;;
76098;SDS011;64828;49.956;8.636;2023-12-20T00:11:01;5.30;;;3.27;;
76098;SDS011;64828;49.956;8.636;2023-12-20T00:11:17;5.38;;;3.20;;
76098;SDS011;64828;49.956;8.636;2023-12-20T00:11:33;5.60;;;3.37;;
76098;SDS011;64828;49.956;8.636;2023-12-20T00:11:48;5.65;;;3.80;;
76098;SDS011;64828;49.956;8.636;2023-12-20T00:12:04;5.40;;;3.70;;
76098;SDS011;64828;49.956;8.636;2023-12-20T00:12:20;4.88;;;3.17;;
76098;SDS011;64828;49.956;8.636;2023-12-20T00:12:35;4.53;;;3.13;;
76098;SDS011;64828;49.956;8.636;2023-12-20T00:12:51;4.88;;;3.50;;
76098;SDS011;64828;49.956;8.636;2023-12-20T00:13:07;5.87;;;3.67;;
76098;SDS011;64828;49.956;8.636;2023-12-20T00:13:22;5.68;;;3.55;;
76098;SDS011;64828;49.956;8.636;2023-12-20T00:13:38;5.00;;;3.22;;
76098;SDS011;64828;49.956;8.636;2023-12-20T00:13:53;5.47;;;3.10;;
76098;SDS011;64828;49.956;8.636;2023-12-20T00:14:09;5.13;;;3.05;;
76098;SDS011;64828;49.956;8.636;2023-12-20T00:14:25;4.53;;;2.83;;
76098;SDS011;64828;49.956;8.636;2023-12-20T00:14:40;4.70;;;3.08;;
76098;SDS011;64828;49.956;8.636;2023-12-20T00:14:56;4.97;;;3.30;;
76098;SDS011;64828;49.956;8.636;2023-12-20T00:15:11;4.20;;;2.73;;
76098;SDS011;64828;49.956;8.636;2023-12-20T00:15:27;4.35;;;2.80;;
76098;SDS011;64828;49.956;8.636;2023-12-20T00:15:43;5.20;;;3.33;;
76098;SDS011;64828;49.956;8.636;2023-12-20T00:15:58;5.68;;;3.55;;
76098;SDS011;64828;49.956;8.636;2023-12-20T00:16:14;5.85;;;3.45;;
76098;SDS011;64828;49.956;8.636;2023-12-20T00:16:29;4.73;;;2.80;;
76098;SDS011;64828;49.956;8.636;2023-12-20T00:16:46;4.85;;;2.90;;
76098;SDS011;64828;49.956;8.636;2023-12-20T00:17:02;4.95;;;3.20;;
76098;SDS011;64828;49.956;8.636;2023-12-20T00:17:18;4.55;;;3.33;;
76098;SDS011;64828;49.956;8.636;2023-12-20T00:17:33;6.37;;;3.80;;
76098;SDS011;64828;49.956;8.636;2023-12-20T00:17:49;6.45;;;3.70;;
76098;SDS011;64828;49.956;8.636;2023-12-20T00:18:05;4.72;;;3.33;;
76098;SDS011;64828;49.956;8.636;2023-12-20T00:18:21;6.17;;;3.27;;
76098;SDS011;64828;49.956;8.636;2023-12-20T00:18:36;7.10;;;3.50;;
76098;SDS011;64828;49.956;8.636;2023-12-20T00:18:52;6.15;;;3.65;;
76098;SDS011;64828;49.956;8.636;2023-12-20T00:19:08;5.30;;;3.50;;
76098;SDS011;64828;49.956;8.636;2023-12-20T00:19:23;4.88;;;3.35;;
76098;SDS011;64828;49.956;8.636;2023-12-20T00:19:39;5.53;;;3.55;;
76098;SDS011;64828;49.956;8.636;2023-12-20T00:19:55;5.35;;;3.20;;
76098;SDS011;64828;49.956;8.636;2023-12-20T00:20:10;5.00;;;3.07;;
76098;SDS011;64828;49.956;8.636;2023-12-20T00:20:27;5.13;;;3.33;;
76098;SDS011;64828;49.956;8.636;2023-12-20T00:20:43;5.30;;;3.30;;
76098;SDS011;64828;49.956;8.636;2023-12-20T00:20:59;5.47;;;3.50;;
76098;SDS011;64828;49.956;8.636;2023-12-20T00:21:14;5.00;;;3.53;;
76098;SDS011;64828;49.956;8.636;2023-12-20T00:21:30;4.88;;;3.10;;
76098;SDS011;64828;49.956;8.636;2023-12-20T00:21:45;5.40;;;3.30;;
76098;SDS011;64828;49.956;8.636;2023-12-20T00:22:01;5.65;;;3.50;;
76098;SDS011;64828;49.956;8.636;2023-12-20T00:22:16;6.77;;;4.00;;
76098;SDS011;64828;49.956;8.636;2023-12-20T00:22:32;7.32;;;4.18;;
76098;SDS011;64828;49.956;8.636;2023-12-20T00:22:48;5.63;;;3.58;;
76098;SDS011;64828;49.956;8.636;2023-12-20T00:23:03;5.30;;;3.40;;
76098;SDS011;64828;49.956;8.636;2023-12-20T00:23:19;5.97;;;3.40;;
76098;SDS011;64828;49.956;8.636;2023-12-20T00:23:34;4.93;;;3.13;;
76098;SDS011;64828;49.956;8.636;2023-12-20T00:23:50;4.57;;;3.10;;
76098;SDS011;64828;49.956;8.636;2023-12-20T00:24:06;4.32;;;3.10;;
76098;SDS011;64828;49.956;8.636;2023-12-20T00:24:21;5.27;;;3.20;;
76098;SDS011;64828;49.956;8.636;2023-12-20T00:24:37;6.13;;;3.40;;
76098;SDS011;64828;49.956;8.636;2023-12-20T00:24:52;5.87;;;3.67;;
76098;SDS011;64828;49.956;8.636;2023-12-20T00:25:08;5.85;;;3.65;;
76098;SDS011;64828;49.956;8.636;2023-12-20T00:25:24;5.50;;;3.10;;
76098;SDS011;64828;49.956;8.636;2023-12-20T00:25:40;5.13;;;3.15;;
76098;SDS011;64828;49.956;8.636;2023-12-20T00:25:55;5.47;;;3.67;;
76098;SDS011;64828;49.956;8.636;2023-12-20T00:26:11;5.47;;;3.80;;
76098;SDS011;64828;49.956;8.636;2023-12-20T00:26:27;5.75;;;3.80;;
76098;SDS011;64828;49.956;8.636;2023-12-20T00:26:43;5.78;;;3.63;;
76098;SDS011;64828;49.956;8.636;2023-12-20T00:26:58;4.70;;;3.20;;
76098;SDS011;64828;49.956;8.636;2023-12-20T00:27:14;4.25;;;3.10;;
76098;SDS011;64828;49.956;8.636;2023-12-20T00:27:29;5.07;;;3.40;;
76098;SDS011;64828;49.956;8.636;2023-12-20T00:27:45;5.50;;;3.58;;
76098;SDS011;64828;49.956;8.636;2023-12-20T00:28:01;5.30;;;3.57;;
76098;SDS011;64828;49.956;8.636;2023-12-20T00:28:17;5.25;;;3.53;;
76098;SDS011;64828;49.956;8.636;2023-12-20T00:28:32;5.67;;;3.60;;
76098;SDS011;64828;49.956;8.636;2023-12-20T00:28:48;6.75;;;3.85;;
76098;SDS011;64828;49.956;8.636;2023-12-20T00:29:03;6.10;;;3.80;;
76098;SDS011;64828;49.956;8.636;2023-12-20T00:29:19;5.03;;;3.47;;
76098;SDS011;64828;49.956;8.636;2023-12-20T00:29:35;4.88;;;3.30;;
76098;SDS011;64828;49.956;8.636;2023-12-20T00:29:50;5.10;;;3.10;;
76098;SDS011;64828;49.956;8.636;2023-12-20T00:30:06;5.15;;;3.05;;
76098;SDS011;64828;49.956;8.636;2023-12-20T00:30:23;4.80;;;2.97;;
76098;SDS011;64828;49.956;8.636;2023-12-20T00:30:38;3.70;;;2.30;;
76098;SDS011;64828;49.956;8.636;2023-12-20T00:30:54;3.75;;;2.45;;
76098;SDS011;64828;49.956;8.636;2023-12-20T00:31:09;4.40;;;2.87;;
76098;SDS011;64828;49.956;8.636;2023-12-20T00:31:25;4.43;;;2.80;;
76098;SDS011;64828;49.956;8.636;2023-12-20T00:31:40;4.03;;;2.70;;
76098;SDS011;64828;49.956;8.636;2023-12-20T00:31:56;3.25;;;2.15;;
76098;SDS011;64828;49.956;8.636;2023-12-20T00:32:12;3.53;;;2.30;;
76098;SDS011;64828;49.956;8.636;2023-12-20T00:32:27;5.25;;;3.13;;
76098;SDS011;64828;49.956;8.636;2023-12-20T00:32:43;5.32;;;3.20;;
76098;SDS011;64828;49.956;8.636;2023-12-20T00:33:01;5.10;;;2.97;;
76098;SDS011;64828;49.956;8.636;2023-12-20T00:33:17;5.25;;;3.08;;
76098;SDS011;64828;49.956;8.636;2023-12-20T00:33:33;4.90;;;3.10;;
76098;SDS011;64828;49.956;8.636;2023-12-20T00:33:49;4.60;;;2.90;;
76098;SDS011;64828;49.956;8.636;2023-12-20T00:34:04;4.90;;;3.10;;
76098;SDS011;64828;49.956;8.636;2023-12-20T00:34:20;4.47;;;3.20;;
76098;SDS011;64828;49.956;8.636;2023-12-20T00:34:36;4.28;;;2.90;;
76098;SDS011;64828;49.956;8.636;2023-12-20T00:34:51;4.83;;;2.87;;
76098;SDS011;64828;49.956;8.636;2023-12-20T00:35:07;4.63;;;2.92;;
76098;SDS011;64828;49.956;8.636;2023-12-20T00:35:22;4.43;;;3.00;;
76098;SDS011;64828;49.956;8.636;2023-12-20T00:35:38;4.80;;;2.90;;
76098;SDS011;64828;49.956;8.636;2023-12-20T00:35:54;3.88;;;2.63;;
76098;SDS011;64828;49.956;8.636;2023-12-20T00:36:10;4.32;;;2.92;;
76098;SDS011;64828;49.956;8.636;2023-12-20T00:36:25;5.80;;;3.10;;
76098;SDS011;64828;49.956;8.636;2023-12-20T00:36:41;5.05;;;2.90;;
76098;SDS011;64828;49.956;8.636;2023-12-20T00:36:56;3.63;;;2.67;;
76098;SDS011;64828;49.956;8.636;2023-12-20T00:37:12;3.47;;;2.35;;
76098;SDS011;64828;49.956;8.636;2023-12-20T00:37:28;3.67;;;2.33;;
76098;SDS011;64828;49.956;8.636;2023-12-20T00:37:43;4.13;;;2.83;;
76098;SDS011;64828;49.956;8.636;2023-12-20T00:37:59;5.38;;;3.13;;
76098;SDS011;64828;49.956;8.636;2023-12-20T00:38:14;5.90;;;3.13;;
76098;SDS011;64828;49.956;8.636;2023-12-20T00:38:30;4.25;;;3.00;;
76098;SDS011;64828;49.956;8.636;2023-12-20T00:38:46;4.03;;;3.00;;
76098;SDS011;64828;49.956;8.636;2023-12-20T00:39:02;4.53;;;2.92;;
76098;SDS011;64828;49.956;8.636;2023-12-20T00:39:18;4.55;;;2.85;;
76098;SDS011;64828;49.956;8.636;2023-12-20T00:39:33;5.27;;;3.10;;
76098;SDS011;64828;49.956;8.636;2023-12-20T00:39:49;5.00;;;2.70;;
76098;SDS011;64828;49.956;8.636;2023-12-20T00:40:05;3.97;;;2.40;;
76098;SDS011;64828;49.956;8.636;2023-12-20T00:40:21;4.40;;;2.80;;
76098;SDS011;64828;49.956;8.636;2023-12-20T00:40:37;4.43;;;3.05;;
76098;SDS011;64828;49.956;8.636;2023-12-20T00:40:53;4.55;;;2.88;;
76098;SDS011;64828;49.956;8.636;2023-12-20T00:41:08;4.03;;;2.57;;
76098;SDS011;64828;49.956;8.636;2023-12-20T00:41:24;3.78;;;2.70;;
76098;SDS011;64828;49.956;8.636;2023-12-20T00:41:40;3.88;;;2.78;;
76098;SDS011;64828;49.956;8.636;2023-12-20T00:41:56;4.80;;;2.97;;
76098;SDS011;64828;49.956;8.636;2023-12-20T00:42:11;5.43;;;3.03;;
76098;SDS011;64828;49.956;8.636;2023-12-20T00:42:27;4.80;;;2.80;;
76098;SDS011;64828;49.956;8.636;2023-12-20T00:42:42;3.78;;;2.47;;
76098;SDS011;64828;49.956;8.636;2023-12-20T00:42:58;3.70;;;2.33;;
76098;SDS011;64828;49.956;8.636;2023-12-20T00:43:14;3.97;;;2.58;;
76098;SDS011;64828;49.956;8.636;2023-12-20T00:43:29;3.60;;;2.53;;
76098;SDS011;64828;49.956;8.636;2023-12-20T00:43:45;3.63;;;2.63;;
76098;SDS011;64828;49.956;8.636;2023-12-20T00:44:00;4.00;;;2.70;;
76098;SDS011;64828;49.956;8.636;2023-12-20T00:44:16;4.45;;;2.72;;
76098;SDS011;64828;49.956;8.636;2023-12-20T00:44:32;4.05;;;2.53;;
76098;SDS011;64828;49.956;8.636;2023-12-20T00:44:47;3.70;;;2.53;;
76098;SDS011;64828;49.956;8.636;2023-12-20T00:45:03;4.90;;;3.13;;
76098;SDS011;64828;49.956;8.636;2023-12-20T00:45:19;4.80;;;2.92;;
76098;SDS011;64828;49.956;8.636;2023-12-20T00:45:35;3.58;;;2.45;;
76098;SDS011;64828;49.956;8.636;2023-12-20T00:45:50;3.80;;;2.63;;
76098;SDS011;64828;49.956;8.636;2023-12-20T00:46:06;4.63;;;2.53;;
76098;SDS011;64828;49.956;8.636;2023-12-20T00:46:22;4.53;;;2.38;;
76098;SDS011;64828;49.956;8.636;2023-12-20T00:46:37;4.50;;;2.60;;
76098;SDS011;64828;49.956;8.636;2023-12-20T00:46:53;4.22;;;2.42;;
76098;SDS011;64828;49.956;8.636;2023-12-20T00:47:08;4.07;;;2.50;;
76098;SDS011;64828;49.956;8.636;2023-12-20T00:47:24;4.57;;;2.60;;
76098;SDS011;64828;49.956;8.636;2023-12-20T00:47:40;4.10;;;2.50;;
76098;SDS011;64828;49.956;8.636;2023-12-20T00:47:55;4.25;;;2.42;;
76098;SDS011;64828;49.956;8.636;2023-12-20T00:48:11;3.95;;;2.45;;
76098;SDS011;64828;49.956;8.636;2023-12-20T00:48:26;3.70;;;2.50;;
76098;SDS011;64828;49.956;8.636;2023-12-20T00:48:45;3.90;;;2.28;;
76098;SDS011;64828;49.956;8.636;2023-12-20T00:49:00;4.00;;;2.40;;
76098;SDS011;64828;49.956;8.636;2023-12-20T00:49:16;3.53;;;2.40;;
76098;SDS011;64828;49.956;8.636;2023-12-20T00:49:32;3.95;;;2.60;;
76098;SDS011;64828;49.956;8.636;2023-12-20T00:49:47;4.10;;;2.80;;
76098;SDS011;64828;49.956;8.636;2023-12-20T00:50:03;4.22;;;2.70;;
76098;SDS011;64828;49.956;8.636;2023-12-20T00:50:19;4.30;;;2.60;;
76098;SDS011;64828;49.956;8.636;2023-12-20T00:50:36;3.45;;;2.60;;
76098;SDS011;64828;49.956;8.636;2023-12-20T00:50:52;3.47;;;2.53;;
76098;SDS011;64828;49.956;8.636;2023-12-20T00:51:08;3.53;;;2.30;;
76098;SDS011;64828;49.956;8.636;2023-12-20T00:51:23;3.17;;;2.23;;
76098;SDS011;64828;49.956;8.636;2023-12-20T00:51:39;3.40;;;2.42;;
76098;SDS011;64828;49.956;8.636;2023-12-20T00:51:54;4.07;;;2.50;;
76098;SDS011;64828;49.956;8.636;2023-12-20T00:52:10;4.50;;;2.60;;
76098;SDS011;64828;49.956;8.636;2023-12-20T00:52:26;3.70;;;2.35;;
76098;SDS011;64828;49.956;8.636;2023-12-20T00:52:41;3.43;;;2.03;;
76098;SDS011;64828;49.956;8.636;2023-12-20T00:52:57;3.92;;;2.40;;
76098;SDS011;64828;49.956;8.636;2023-12-20T00:53:12;3.73;;;2.50;;
76098;SDS011;64828;49.956;8.636;2023-12-20T00:53:28;3.22;;;2.28;;
76098;SDS011;64828;49.956;8.636;2023-12-20T00:53:44;3.20;;;2.30;;
76098;SDS011;64828;49.956;8.636;2023-12-20T00:53:59;4.33;;;2.50;;
76098;SDS011;64828;49.956;8.636;2023-12-20T00:54:15;4.82;;;2.50;;
76098;SDS011;64828;49.956;8.636;2023-12-20T00:54:30;4.18;;;2.35;;
76098;SDS011;64828;49.956;8.636;2023-12-20T00:54:46;3.67;;;2.50;;
76098;SDS011;64828;49.956;8.636;2023-12-20T00:55:02;3.40;;;2.33;;
76098;SDS011;64828;49.956;8.636;2023-12-20T00:55:18;2.85;;;1.85;;
76098;SDS011;64828;49.956;8.636;2023-12-20T00:55:34;3.33;;;2.17;;
76098;SDS011;64828;49.956;8.636;2023-12-20T00:55:50;3.75;;;2.45;;
76098;SDS011;64828;49.956;8.636;2023-12-20T00:56:05;3.70;;;2.40;;
76098;SDS011;64828;49.956;8.636;2023-12-20T00:56:21;3.78;;;2.33;;
76098;SDS011;64828;49.956;8.636;2023-12-20T00:56:37;4.05;;;2.50;;
76098;SDS011;64828;49.956;8.636;2023-12-20T00:56:52;3.90;;;2.50;;
76098;SDS011;64828;49.956;8.636;2023-12-20T00:57:08;7.85;;;2.90;;
76098;SDS011;64828;49.956;8.636;2023-12-20T00:57:24;7.70;;;2.60;;
76098;SDS011;64828;49.956;8.636;2023-12-20T00:57:40;3.22;;;2.28;;
76098;SDS011;64828;49.956;8.636;2023-12-20T00:57:56;4.07;;;2.45;;
76098;SDS011;64828;49.956;8.636;2023-12-20T00:58:11;4.27;;;2.20;;
76098;SDS011;64828;49.956;8.636;2023-12-20T00:58:27;4.15;;;2.22;;
76098;SDS011;64828;49.956;8.636;2023-12-20T00:58:43;4.57;;;2.60;;
76098;SDS011;64828;49.956;8.636;2023-12-20T00:58:59;3.75;;;2.47;;
76098;SDS011;64828;49.956;8.636;2023-12-20T00:59:15;3.27;;;2.30;;
76098;SDS011;64828;49.956;8.636;2023-12-20T00:59:32;3.38;;;2.30;;
76098;SDS011;64828;49.956;8.636;2023-12-20T00:59:48;3.42;;;2.33;;
76098;SDS011;64828;49.956;8.636;2023-12-20T01:00:04;3.60;;;2.22;;
76098;SDS011;64828;49.956;8.636;2023-12-20T01:00:20;3.33;;;2.30;;
76098;SDS011;64828;49.956;8.636;2023-12-20T01:00:36;3.73;;;2.50;;
76098;SDS011;64828;49.956;8.636;2023-12-20T01:00:52;4.00;;;2.50;;
76098;SDS011;64828;49.956;8.636;2023-12-20T01:01:07;3.63;;;2.40;;
76098;SDS011;64828;49.956;8.636;2023-12-20T01:01:23;3.80;;;2.42;;
76098;SDS011;64828;49.956;8.636;2023-12-20T01:01:38;3.95;;;2.38;;
76098;SDS011;64828;49.956;8.636;2023-12-20T01:01:54;3.70;;;2.30;;
76098;SDS011;64828;49.956;8.636;2023-12-20T01:02:10;3.72;;;2.22;;
76098;SDS011;64828;49.956;8.636;2023-12-20T01:02:25;3.92;;;2.28;;
76098;SDS011;64828;49.956;8.636;2023-12-20T01:02:41;3.63;;;2.20;;
76098;SDS011;64828;49.956;8.636;2023-12-20T01:02:57;3.00;;;2.00;;
76098;SDS011;64828;49.956;8.636;2023-12-20T01:03:13;3.35;;;2.00;;
76098;SDS011;64828;49.956;8.636;2023-12-20T01:03:32;4.07;;;2.20;;
76098;SDS011;64828;49.956;8.636;2023-12-20T01:03:47;4.32;;;2.40;;
76098;SDS011;64828;49.956;8.636;2023-12-20T01:04:06;4.50;;;2.53;;
76098;SDS011;64828;49.956;8.636;2023-12-20T01:04:21;4.20;;;2.43;;
76098;SDS011;64828;49.956;8.636;2023-12-20T01:04:37;3.30;;;2.35;;
76098;SDS011;64828;49.956;8.636;2023-12-20T01:04:52;3.25;;;2.17;;
76098;SDS011;64828;49.956;8.636;2023-12-20T01:05:08;4.00;;;2.33;;
76098;SDS011;64828;49.956;8.636;2023-12-20T01:05:24;3.83;;;2.25;;
76098;SDS011;64828;49.956;8.636;2023-12-20T01:05:39;3.10;;;2.10;;
76098;SDS011;64828;49.956;8.636;2023-12-20T01:05:55;3.67;;;2.50;;
76098;SDS011;64828;49.956;8.636;2023-12-20T01:06:11;3.58;;;2.30;;
76098;SDS011;64828;49.956;8.636;2023-12-20T01:06:26;3.87;;;2.10;;
76098;SDS011;64828;49.956;8.636;2023-12-20T01:06:42;4.25;;;2.28;;
76098;SDS011;64828;49.956;8.636;2023-12-20T01:06:58;3.90;;;2.28;;
76098;SDS011;64828;49.956;8.636;2023-12-20T01:07:13;4.55;;;2.47;;
76098;SDS011;64828;49.956;8.636;2023-12-20T01:07:29;4.03;;;2.53;;
76098;SDS011;64828;49.956;8.636;2023-12-20T01:07:45;3.45;;;2.40;;
76098;SDS011;64828;49.956;8.636;2023-12-20T01:08:00;3.07;;;2.10;;
76098;SDS011;64828;49.956;8.636;2023-12-20T01:08:17;2.88;;;1.98;;
76098;SDS011;64828;49.956;8.636;2023-12-20T01:08:33;3.83;;;2.20;;
76098;SDS011;64828;49.956;8.636;2023-12-20T01:08:50;3.70;;;2.22;;
76098;SDS011;64828;49.956;8.636;2023-12-20T01:09:05;2.70;;;2.10;;
76098;SDS011;64828;49.956;8.636;2023-12-20T01:09:21;2.90;;;2.17;;
76098;SDS011;64828;49.956;8.636;2023-12-20T01:09:41;3.38;;;2.22;;
76098;SDS011;64828;49.956;8.636;2023-12-20T01:09:56;3.25;;;2.30;;
76098;SDS011;64828;49.956;8.636;2023-12-20T01:10:12;3.90;;;2.47;;
76098;SDS011;64828;49.956;8.636;2023-12-20T01:10:28;3.95;;;2.55;;
76098;SDS011;64828;49.956;8.636;2023-12-20T01:10:44;4.55;;;2.40;;
76098;SDS011;64828;49.956;8.636;2023-12-20T01:11:03;4.97;;;2.40;;
76098;SDS011;64828;49.956;8.636;2023-12-20T01:11:21;3.20;;;2.40;;
76098;SDS011;64828;49.956;8.636;2023-12-20T01:11:37;3.63;;;2.20;;
76098;SDS011;64828;49.956;8.636;2023-12-20T01:11:52;4.30;;;2.00;;
76098;SDS011;64828;49.956;8.636;2023-12-20T01:12:08;3.65;;;2.00;;
76098;SDS011;64828;49.956;8.636;2023-12-20T01:12:24;3.40;;;2.25;;
76098;SDS011;64828;49.956;8.636;2023-12-20T01:12:39;3.70;;;2.23;;
76098;SDS011;64828;49.956;8.636;2023-12-20T01:12:55;3.38;;;2.05;;
76098;SDS011;64828;49.956;8.636;2023-12-20T01:13:10;2.97;;;2.13;;
76098;SDS011;64828;49.956;8.636;2023-12-20T01:13:26;3.30;;;2.20;;
76098;SDS011;64828;49.956;8.636;2023-12-20T01:13:42;4.20;;;2.30;;
76098;SDS011;64828;49.956;8.636;2023-12-20T01:13:57;3.80;;;2.28;;
76098;SDS011;64828;49.956;8.636;2023-12-20T01:14:13;3.10;;;2.00;;
76098;SDS011;64828;49.956;8.636;2023-12-20T01:14:28;3.88;;;2.30;;
76098;SDS011;64828;49.956;8.636;2023-12-20T01:14:44;3.93;;;2.30;;
76098;SDS011;64828;49.956;8.636;2023-12-20T01:15:00;3.70;;;2.35;;
76098;SDS011;64828;49.956;8.636;2023-12-20T01:15:15;3.60;;;2.33;;
76098;SDS011;64828;49.956;8.636;2023-12-20T01:15:31;2.90;;;1.97;;
76098;SDS011;64828;49.956;8.636;2023-12-20T01:15:46;3.28;;;2.17;;
76098;SDS011;64828;49.956;8.636;2023-12-20T01:16:03;3.53;;;2.40;;
76098;SDS011;64828;49.956;8.636;2023-12-20T01:16:19;3.38;;;2.45;;
76098;SDS011;64828;49.956;8.636;2023-12-20T01:16:34;3.90;;;2.28;;
76098;SDS011;64828;49.956;8.636;2023-12-20T01:16:50;4.40;;;2.17;;
76098;SDS011;64828;49.956;8.636;2023-12-20T01:17:05;4.07;;;2.30;;
76098;SDS011;64828;49.956;8.636;2023-12-20T01:17:21;3.83;;;2.30;;
76098;SDS011;64828;49.956;8.636;2023-12-20T01:17:37;3.33;;;2.10;;
76098;SDS011;64828;49.956;8.636;2023-12-20T01:17:52;3.20;;;2.10;;
76098;SDS011;64828;49.956;8.636;2023-12-20T01:18:08;3.45;;;2.30;;
76098;SDS011;64828;49.956;8.636;2023-12-20T01:18:23;3.40;;;2.20;;
76098;SDS011;64828;49.956;8.636;2023-12-20T01:18:39;3.20;;;2.20;;
76098;SDS011;64828;49.956;8.636;2023-12-20T01:18:55;3.20;;;2.20;;
76098;SDS011;64828;49.956;8.636;2023-12-20T01:19:10;3.17;;;2.20;;
76098;SDS011;64828;49.956;8.636;2023-12-20T01:19:26;3.20;;;2.27;;
76098;SDS011;64828;49.956;8.636;2023-12-20T01:19:43;3.03;;;2.15;;
76098;SDS011;64828;49.956;8.636;2023-12-20T01:19:58;3.20;;;2.17;;
76098;SDS011;64828;49.956;8.636;2023-12-20T01:20:14;3.50;;;2.10;;
76098;SDS011;64828;49.956;8.636;2023-12-20T01:20:30;3.80;;;1.90;;
76098;SDS011;64828;49.956;8.636;2023-12-20T01:20:46;3.50;;;2.00;;
76098;SDS011;64828;49.956;8.636;2023-12-20T01:21:02;3.30;;;2.10;;
76098;SDS011;64828;49.956;8.636;2023-12-20T01:21:18;3.95;;;2.15;;
76098;SDS011;64828;49.956;8.636;2023-12-20T01:21:34;4.53;;;2.28;;
76098;SDS011;64828;49.956;8.636;2023-12-20T01:21:49;4.43;;;2.20;;
76098;SDS011;64828;49.956;8.636;2023-12-20T01:22:05;4.40;;;2.20;;
76098;SDS011;64828;49.956;8.636;2023-12-20T01:22:20;3.78;;;2.25;;
76098;SDS011;64828;49.956;8.636;2023-12-20T01:22:36;3.00;;;2.30;;
76098;SDS011;64828;49.956;8.636;2023-12-20T01:22:52;2.95;;;2.28;;
76098;SDS011;64828;49.956;8.636;2023-12-20T01:23:07;3.25;;;2.25;;
76098;SDS011;64828;49.956;8.636;2023-12-20T01:23:23;3.57;;;2.17;;
76098;SDS011;64828;49.956;8.636;2023-12-20T01:23:38;3.88;;;2.30;;
76098;SDS011;64828;49.956;8.636;2023-12-20T01:23:54;3.27;;;2.03;;
76098;SDS011;64828;49.956;8.636;2023-12-20T01:24:10;3.13;;;1.92;;
76098;SDS011;64828;49.956;8.636;2023-12-20T01:24:25;3.70;;;2.10;;
76098;SDS011;64828;49.956;8.636;2023-12-20T01:24:41;3.70;;;2.10;;
76098;SDS011;64828;49.956;8.636;2023-12-20T01:24:57;3.35;;;2.10;;
76098;SDS011;64828;49.956;8.636;2023-12-20T01:25:13;3.03;;;2.00;;
76098;SDS011;64828;49.956;8.636;2023-12-20T01:25:28;3.10;;;2.00;;
76098;SDS011;64828;49.956;8.636;2023-12-20T01:25:44;3.90;;;2.20;;
76098;SDS011;64828;49.956;8.636;2023-12-20T01:25:59;3.75;;;2.17;;
76098;SDS011;64828;49.956;8.636;2023-12-20T01:26:15;3.13;;;2.10;;
76098;SDS011;64828;49.956;8.636;2023-12-20T01:26:31;3.03;;;2.00;;
76098;SDS011;64828;49.956;8.636;2023-12-20T01:26:47;3.00;;;2.03;;
76098;SDS011;64828;49.956;8.636;2023-12-20T01:27:03;3.40;;;2.10;;
76098;SDS011;64828;49.956;8.636;2023-12-20T01:27:18;3.00;;;2.00;;
76098;SDS011;64828;49.956;8.636;2023-12-20T01:27:34;2.73;;;1.97;;
76098;SDS011;64828;49.956;8.636;2023-12-20T01:27:50;2.83;;;1.98;;
76098;SDS011;64828;49.956;8.636;2023-12-20T01:28:05;3.42;;;2.10;;
76098;SDS011;64828;49.956;8.636;2023-12-20T01:28:21;4.03;;;2.17;;
76098;SDS011;64828;49.956;8.636;2023-12-20T01:28:37;3.17;;;2.03;;
76098;SDS011;64828;49.956;8.636;2023-12-20T01:28:53;2.47;;;1.80;;
76098;SDS011;64828;49.956;8.636;2023-12-20T01:29:09;2.63;;;1.80;;
76098;SDS011;64828;49.956;8.636;2023-12-20T01:29:24;3.22;;;2.00;;
76098;SDS011;64828;49.956;8.636;2023-12-20T01:29:40;3.53;;;2.10;;
76098;SDS011;64828;49.956;8.636;2023-12-20T01:29:56;3.97;;;2.17;;
76098;SDS011;64828;49.956;8.636;2023-12-20T01:30:12;3.80;;;2.10;;
76098;SDS011;64828;49.956;8.636;2023-12-20T01:30:28;3.65;;;2.05;;
76098;SDS011;64828;49.956;8.636;2023-12-20T01:30:43;3.42;;;2.00;;
76098;SDS011;64828;49.956;8.636;2023-12-20T01:30:59;2.93;;;2.00;;
76098;SDS011;64828;49.956;8.636;2023-12-20T01:31:14;2.95;;;1.88;;
76098;SDS011;64828;49.956;8.636;2023-12-20T01:31:30;3.10;;;2.00;;
76098;SDS011;64828;49.956;8.636;2023-12-20T01:31:46;3.30;;;2.20;;
76098;SDS011;64828;49.956;8.636;2023-12-20T01:32:01;3.90;;;2.30;;
76098;SDS011;64828;49.956;8.636;2023-12-20T01:32:17;4.03;;;2.20;;
76098;SDS011;64828;49.956;8.636;2023-12-20T01:32:32;3.65;;;2.10;;
76098;SDS011;64828;49.956;8.636;2023-12-20T01:32:48;3.70;;;2.33;;
76098;SDS011;64828;49.956;8.636;2023-12-20T01:33:03;3.53;;;2.40;;
76098;SDS011;64828;49.956;8.636;2023-12-20T01:33:19;4.23;;;2.40;;
76098;SDS011;64828;49.956;8.636;2023-12-20T01:33:35;4.28;;;2.30;;
76098;SDS011;64828;49.956;8.636;2023-12-20T01:33:51;3.40;;;1.90;;
76098;SDS011;64828;49.956;8.636;2023-12-20T01:34:07;3.50;;;2.13;;
76098;SDS011;64828;49.956;8.636;2023-12-20T01:34:24;3.72;;;2.45;;
76098;SDS011;64828;49.956;8.636;2023-12-20T01:34:39;3.50;;;2.20;;
76098;SDS011;64828;49.956;8.636;2023-12-20T01:34:55;3.38;;;2.10;;
76098;SDS011;64828;49.956;8.636;2023-12-20T01:35:10;3.60;;;2.10;;